createdAt,value
2023-01-13T00:00:32.893Z,98826.84
2023-01-13T00:02:59.352Z,98843.84
2023-01-13T00:05:26.678Z,98845.75
2023-01-13T00:07:53.107Z,98841.44
2023-01-13T00:10:19.567Z,98831.97
2023-01-13T00:12:45.973Z,98830.81
2023-01-13T00:15:13.359Z,98824.56
2023-01-13T00:17:39.833Z,98826.59
2023-01-13T00:20:07.241Z,98820.66
2023-01-13T00:22:34.919Z,98813.63
2023-01-13T00:25:01.601Z,98816.00
2023-01-13T00:27:29.027Z,98812.69
2023-01-13T00:29:55.494Z,98804.84
2023-01-13T00:32:21.975Z,98811.97
2023-01-13T00:34:48.363Z,98803.94
2023-01-13T00:37:14.819Z,98810.69
2023-01-13T00:39:41.627Z,98798.81
2023-01-13T00:42:27.309Z,98794.47
2023-01-13T00:44:53.679Z,98793.56
2023-01-13T00:47:20.047Z,98791.00
2023-01-13T00:49:48.082Z,98790.19
2023-01-13T00:52:14.471Z,98786.66
2023-01-13T00:54:40.842Z,98791.16
2023-01-13T00:57:07.566Z,98786.00
2023-01-13T00:59:33.928Z,98786.78
2023-01-13T01:02:00.424Z,98782.50
2023-01-13T01:04:26.849Z,98783.44
2023-01-13T01:06:53.268Z,98786.88
2023-01-13T01:09:19.653Z,98781.81
2023-01-13T01:11:46.044Z,98774.31
2023-01-13T01:14:13.619Z,98774.25
2023-01-13T01:16:41.003Z,98778.56
2023-01-13T01:19:07.849Z,98789.84
2023-01-13T01:21:34.696Z,98782.75
2023-01-13T01:24:03.081Z,98786.38
2023-01-13T01:26:30.615Z,98766.72
2023-01-13T01:28:57.398Z,98780.34
2023-01-13T01:31:26.612Z,98776.97
2023-01-13T01:33:54.188Z,98782.81
2023-01-13T01:36:21.785Z,98788.81
2023-01-13T01:38:49.283Z,98781.94
2023-01-13T01:41:27.581Z,98781.94
2023-01-13T01:44:04.095Z,98784.50
2023-01-13T01:46:33.468Z,98782.81
2023-01-13T01:49:14.079Z,98775.22
2023-01-13T01:51:59.374Z,98773.56
2023-01-13T01:54:50.257Z,98768.41
2023-01-13T01:57:44.727Z,98764.09
2023-01-13T02:00:12.335Z,98771.09
2023-01-13T02:02:39.820Z,98761.59
2023-01-13T02:05:06.741Z,98763.31
2023-01-13T02:07:34.405Z,98765.22
2023-01-13T02:10:07.174Z,98758.34
2023-01-13T02:12:33.952Z,98745.59
2023-01-13T02:15:16.855Z,98746.53
2023-01-13T02:17:52.196Z,98740.41
2023-01-13T02:20:45.461Z,98743.72
2023-01-13T02:23:34.708Z,98739.59
2023-01-13T02:26:25.176Z,98750.47
2023-01-13T02:29:13.125Z,98733.47
2023-01-13T02:31:42.138Z,98730.03
2023-01-13T02:34:17.560Z,98731.88
2023-01-13T02:36:50.176Z,98724.09
2023-01-13T02:39:23.001Z,98717.34
2023-01-13T02:42:15.647Z,98724.97
2023-01-13T02:44:53.813Z,98716.50
2023-01-13T02:47:26.436Z,98712.22
2023-01-13T02:49:58.996Z,98699.16
2023-01-13T02:52:33.313Z,98696.91
2023-01-13T02:55:12.749Z,98700.22
2023-01-13T02:57:39.745Z,98696.84
2023-01-13T03:00:07.229Z,98696.03
2023-01-13T03:02:33.705Z,98689.44
2023-01-13T03:05:00.778Z,98685.09
2023-01-13T03:07:27.116Z,98686.00
2023-01-13T03:10:07.562Z,98675.09
2023-01-13T03:12:44.329Z,98672.50
2023-01-13T03:15:37.010Z,98679.31
2023-01-13T03:18:39.770Z,98670.09
2023-01-13T03:21:28.492Z,98664.97
2023-01-13T03:24:03.742Z,98660.53
2023-01-13T03:27:14.112Z,98652.13
2023-01-13T03:29:45.478Z,98662.41
2023-01-13T03:32:30.195Z,98659.97
2023-01-13T03:35:02.759Z,98647.13
2023-01-13T03:37:33.540Z,98644.47
2023-01-13T03:40:02.671Z,98640.09
2023-01-13T03:42:31.388Z,98633.41
2023-01-13T03:45:03.191Z,98634.31
2023-01-13T03:47:29.493Z,98629.22
2023-01-13T03:50:00.206Z,98627.50
2023-01-13T03:52:31.853Z,98623.38
2023-01-13T03:55:02.407Z,98625.84
2023-01-13T03:57:31.664Z,98619.81
2023-01-13T04:00:00.909Z,98618.13
2023-01-13T04:02:33.174Z,98613.72
2023-01-13T04:05:01.333Z,98607.59
2023-01-13T04:07:44.572Z,98608.59
2023-01-13T04:10:12.338Z,98605.22
2023-01-13T04:13:02.801Z,98606.00
2023-01-13T04:15:35.267Z,98614.59
2023-01-13T04:18:23.620Z,98612.81
2023-01-13T04:20:52.093Z,98613.47
2023-01-13T04:23:19.685Z,98609.13
2023-01-13T04:25:46.941Z,98613.47
2023-01-13T04:28:14.522Z,98605.00
2023-01-13T04:30:42.000Z,98598.09
2023-01-13T04:33:08.888Z,98593.84
2023-01-13T04:35:35.793Z,98603.03
2023-01-13T04:38:03.951Z,98603.91
2023-01-13T04:40:30.495Z,98614.41
2023-01-13T04:42:56.943Z,98618.47
2023-01-13T04:45:23.323Z,98614.16
2023-01-13T04:47:49.792Z,98616.84
2023-01-13T04:50:19.653Z,98620.38
2023-01-13T04:52:50.480Z,98670.88
2023-01-13T04:55:17.630Z,98684.44
2023-01-13T04:57:44.171Z,98697.00
2023-01-13T05:00:12.924Z,98720.31
2023-01-13T05:02:39.492Z,98719.66
2023-01-13T05:05:06.416Z,98717.66
2023-01-13T05:07:33.158Z,98718.97
2023-01-13T05:09:59.652Z,98717.97
2023-01-13T05:12:44.667Z,98706.84
2023-01-13T05:15:31.822Z,98703.41
2023-01-13T05:17:58.413Z,98711.72
2023-01-13T05:20:25.373Z,98692.72
2023-01-13T05:23:10.093Z,98710.91
2023-01-13T05:25:39.689Z,98725.44
2023-01-13T05:28:06.371Z,98723.63
2023-01-13T05:30:37.528Z,98712.75
2023-01-13T05:33:04.533Z,98705.69
2023-01-13T05:35:33.862Z,98714.91
2023-01-13T05:38:00.300Z,98715.59
2023-01-13T05:40:45.013Z,98717.22
2023-01-13T05:43:19.810Z,98730.16
2023-01-13T05:46:07.840Z,98721.44
2023-01-13T05:48:41.512Z,98725.53
2023-01-13T05:51:09.951Z,98715.59
2023-01-13T05:53:36.551Z,98717.03
2023-01-13T05:56:07.423Z,98724.59
2023-01-13T05:58:34.141Z,98723.50
2023-01-13T06:01:02.672Z,98732.72
2023-01-13T06:03:29.161Z,98729.41
2023-01-13T06:05:59.176Z,98745.25
2023-01-13T06:08:26.029Z,98753.84
2023-01-13T06:10:52.496Z,98755.25
2023-01-13T06:13:19.014Z,98772.03
2023-01-13T06:15:45.481Z,98765.25
2023-01-13T06:18:12.424Z,98768.69
2023-01-13T06:20:38.857Z,98775.41
2023-01-13T06:23:09.174Z,98777.81
2023-01-13T06:25:50.050Z,98788.28
2023-01-13T06:28:16.467Z,98792.66
2023-01-13T06:30:55.229Z,98792.06
2023-01-13T06:33:24.840Z,98783.88
2023-01-13T06:35:58.140Z,98770.72
2023-01-13T06:38:26.017Z,98760.91
2023-01-13T06:40:52.734Z,98780.69
2023-01-13T06:43:19.219Z,98781.91
2023-01-13T06:45:49.418Z,98784.31
2023-01-13T06:48:17.448Z,98788.78
2023-01-13T06:50:44.780Z,98786.69
2023-01-13T06:53:11.247Z,98790.78
2023-01-13T06:55:37.922Z,98795.06
2023-01-13T06:58:04.385Z,98785.78
2023-01-13T07:00:32.455Z,98787.69
2023-01-13T07:03:13.361Z,98801.56
2023-01-13T07:05:41.100Z,98804.34
2023-01-13T07:08:08.809Z,98799.22
2023-01-13T07:10:36.292Z,98801.16
2023-01-13T07:13:22.782Z,98807.69
2023-01-13T07:16:00.222Z,98812.25
2023-01-13T07:18:28.370Z,98818.06
2023-01-13T07:20:56.089Z,98815.53
2023-01-13T07:23:22.641Z,98823.50
2023-01-13T07:25:49.156Z,98830.31
2023-01-13T07:28:15.844Z,98822.63
2023-01-13T07:30:42.314Z,98823.34
2023-01-13T07:33:08.933Z,98830.22
2023-01-13T07:35:35.366Z,98837.09
2023-01-13T07:38:01.784Z,98837.09
2023-01-13T07:40:28.274Z,98831.84
2023-01-13T07:43:14.503Z,98832.63
2023-01-13T07:45:40.894Z,98844.78
2023-01-13T07:48:07.309Z,98844.91
2023-01-13T07:50:33.812Z,98836.22
2023-01-13T07:53:00.241Z,98846.59
2023-01-13T07:55:26.657Z,98849.94
2023-01-13T07:57:53.086Z,98840.53
2023-01-13T08:00:20.012Z,98854.22
2023-01-13T08:02:46.498Z,98865.09
2023-01-13T08:05:13.294Z,98873.56
2023-01-13T08:07:40.351Z,98864.25
2023-01-13T08:10:07.364Z,98872.75
2023-01-13T08:12:56.535Z,98872.81
2023-01-13T08:15:23.565Z,98874.34
2023-01-13T08:17:50.398Z,98881.09
2023-01-13T08:20:16.953Z,98896.28
2023-01-13T08:22:44.267Z,98893.63
2023-01-13T08:25:10.722Z,98894.66
2023-01-13T08:27:37.311Z,98891.47
2023-01-13T08:30:04.693Z,98873.41
2023-01-13T08:32:31.488Z,98874.19
2023-01-13T08:34:57.978Z,98886.69
2023-01-13T08:37:24.403Z,98886.06
2023-01-13T08:39:50.866Z,98885.16
2023-01-13T08:42:17.892Z,98904.00
2023-01-13T08:44:44.297Z,98902.44
2023-01-13T08:47:10.688Z,98914.34
2023-01-13T08:49:37.162Z,98924.72
2023-01-13T08:52:04.692Z,98915.28
2023-01-13T08:54:31.157Z,98937.50
2023-01-13T08:56:57.640Z,98929.94
2023-01-13T08:59:24.123Z,98929.19
2023-01-13T09:01:50.692Z,98928.31
2023-01-13T09:04:19.717Z,98931.09
2023-01-13T09:06:47.158Z,98932.94
2023-01-13T09:09:13.775Z,98938.84
2023-01-13T09:12:01.002Z,98944.03
2023-01-13T09:14:29.430Z,98949.91
2023-01-13T09:16:56.492Z,98954.13
2023-01-13T09:19:23.048Z,98955.06
2023-01-13T09:21:49.725Z,98953.41
2023-01-13T09:24:16.201Z,98955.16
2023-01-13T09:26:42.615Z,98955.06
2023-01-13T09:29:09.085Z,98951.78
2023-01-13T09:31:35.567Z,98954.34
2023-01-13T09:34:22.097Z,98968.75
2023-01-13T09:36:48.761Z,98979.88
2023-01-13T09:39:15.401Z,98971.31
2023-01-13T09:42:03.489Z,98969.63
2023-01-13T09:44:39.835Z,98982.56
2023-01-13T09:47:14.115Z,98987.19
2023-01-13T09:49:42.107Z,99000.00
2023-01-13T09:52:20.337Z,98982.38
2023-01-13T09:55:14.004Z,98986.72
2023-01-13T09:57:40.525Z,98991.97
2023-01-13T10:00:29.167Z,98991.09
2023-01-13T10:03:01.577Z,98998.28
2023-01-13T10:05:32.355Z,98988.03
2023-01-13T10:08:05.223Z,99006.84
2023-01-13T10:10:46.575Z,98999.94
2023-01-13T10:13:20.080Z,99004.28
2023-01-13T10:15:57.809Z,99002.59
2023-01-13T10:18:26.068Z,98999.94
2023-01-13T10:20:59.621Z,99006.84
2023-01-13T10:23:35.306Z,99000.94
2023-01-13T10:26:24.975Z,99002.66
2023-01-13T10:28:55.156Z,99000.94
2023-01-13T10:31:22.542Z,99003.31
2023-01-13T10:33:49.937Z,99003.50
2023-01-13T10:36:23.258Z,99016.09
2023-01-13T10:38:50.465Z,99004.53
2023-01-13T10:41:19.806Z,99013.72
2023-01-13T10:44:15.675Z,99007.53
2023-01-13T10:46:56.871Z,99014.47
2023-01-13T10:49:33.068Z,99041.09
2023-01-13T10:52:00.782Z,99044.78
2023-01-13T10:54:27.364Z,99038.34
2023-01-13T10:57:13.449Z,99062.03
2023-01-13T10:59:40.423Z,99049.88
2023-01-13T11:02:25.893Z,99046.81
2023-01-13T11:04:52.757Z,99052.81
2023-01-13T11:07:37.140Z,99057.06
2023-01-13T11:10:09.587Z,99061.03
2023-01-13T11:13:11.719Z,99055.78
2023-01-13T11:15:50.280Z,99052.41
2023-01-13T11:18:24.409Z,99057.06
2023-01-13T11:20:51.949Z,99052.13
2023-01-13T11:23:27.385Z,99054.53
2023-01-13T11:26:00.165Z,99052.22
2023-01-13T11:28:45.380Z,99063.59
2023-01-13T11:31:22.879Z,99065.47
2023-01-13T11:33:59.377Z,99050.59
2023-01-13T11:36:31.661Z,99042.16
2023-01-13T11:39:18.821Z,99046.66
2023-01-13T11:42:08.713Z,99043.44
2023-01-13T11:44:55.847Z,99044.97
2023-01-13T11:47:24.198Z,99045.91
2023-01-13T11:49:50.655Z,99044.72
2023-01-13T11:52:50.515Z,99052.94
2023-01-13T11:55:28.937Z,99037.72
2023-01-13T11:58:09.563Z,99041.44
2023-01-13T12:01:01.177Z,99041.53
2023-01-13T12:03:35.550Z,99041.41
2023-01-13T12:06:17.545Z,99049.88
2023-01-13T12:08:56.915Z,99039.34
2023-01-13T12:12:11.103Z,99039.72
2023-01-13T12:15:06.258Z,99046.22
2023-01-13T12:17:54.553Z,99028.44
2023-01-13T12:21:00.027Z,99036.53
2023-01-13T12:23:32.742Z,99025.63
2023-01-13T12:26:05.712Z,99026.72
2023-01-13T12:28:50.277Z,99042.31
2023-01-13T12:31:18.912Z,99074.44
2023-01-13T12:34:02.425Z,99062.38
2023-01-13T12:36:56.897Z,99066.16
2023-01-13T12:39:43.384Z,99059.63
2023-01-13T12:42:46.413Z,99071.69
2023-01-13T12:45:12.717Z,99069.75
2023-01-13T12:47:44.296Z,99068.97
2023-01-13T12:50:23.641Z,99059.84
2023-01-13T12:52:56.870Z,99066.88
2023-01-13T12:55:24.801Z,99055.94
2023-01-13T12:57:58.328Z,99046.66
2023-01-13T13:00:32.443Z,99058.50
2023-01-13T13:03:10.783Z,99064.50
2023-01-13T13:05:55.508Z,99059.19
2023-01-13T13:08:43.734Z,99065.75
2023-01-13T13:11:32.965Z,99054.06
2023-01-13T13:14:00.352Z,99069.94
2023-01-13T13:16:26.747Z,99079.22
2023-01-13T13:19:19.929Z,99084.97
2023-01-13T13:22:14.643Z,99097.34
2023-01-13T13:24:44.653Z,99077.59
2023-01-13T13:27:36.379Z,99096.78
2023-01-13T13:30:17.992Z,99086.69
2023-01-13T13:32:51.889Z,99089.66
2023-01-13T13:35:21.349Z,99090.69
2023-01-13T13:38:27.960Z,99097.94
2023-01-13T13:41:12.815Z,99103.44
2023-01-13T13:43:59.347Z,99107.69
2023-01-13T13:46:48.477Z,99099.19
2023-01-13T13:49:14.790Z,99103.44
2023-01-13T13:51:49.415Z,99101.13
2023-01-13T13:54:19.426Z,99086.78
2023-01-13T13:56:46.998Z,99099.72
2023-01-13T13:59:17.791Z,99093.88
2023-01-13T14:01:45.283Z,99098.34
2023-01-13T14:04:22.911Z,99099.13
2023-01-13T14:06:54.405Z,99106.69
2023-01-13T14:09:21.983Z,99104.94
2023-01-13T14:11:55.858Z,99128.56
2023-01-13T14:14:22.930Z,99130.25
2023-01-13T14:16:51.650Z,99123.53
2023-01-13T14:19:25.223Z,99128.44
2023-01-13T14:21:51.667Z,99118.09
2023-01-13T14:24:20.570Z,99129.53
2023-01-13T14:26:51.831Z,99134.59
2023-01-13T14:29:24.919Z,99131.81
2023-01-13T14:31:53.210Z,99137.56
2023-01-13T14:34:32.633Z,99140.97
2023-01-13T14:37:00.569Z,99127.31
2023-01-13T14:39:38.893Z,99116.63
2023-01-13T14:42:12.181Z,99139.69
2023-01-13T14:44:44.329Z,99145.31
2023-01-13T14:47:23.759Z,99143.53
2023-01-13T14:49:54.844Z,99161.41
2023-01-13T14:52:23.902Z,99168.88
2023-01-13T14:54:53.975Z,99176.31
2023-01-13T14:57:34.327Z,99175.44
2023-01-13T15:00:16.363Z,99197.47
2023-01-13T15:02:57.866Z,99205.69
2023-01-13T15:05:27.097Z,99212.66
2023-01-13T15:07:54.659Z,99211.91
2023-01-13T15:10:27.064Z,99208.09
2023-01-13T15:12:56.074Z,99215.53
2023-01-13T15:15:25.146Z,99227.50
2023-01-13T15:17:52.293Z,99224.63
2023-01-13T15:20:21.296Z,99236.19
2023-01-13T15:22:48.199Z,99237.66
2023-01-13T15:25:14.998Z,99243.16
2023-01-13T15:27:43.334Z,99243.84
2023-01-13T15:30:14.658Z,99248.19
2023-01-13T15:32:41.292Z,99258.41
2023-01-13T15:35:08.717Z,99265.91
2023-01-13T15:37:36.211Z,99263.19
2023-01-13T15:40:03.160Z,99266.47
2023-01-13T15:42:48.598Z,99274.97
2023-01-13T15:45:33.674Z,99285.03
2023-01-13T15:48:00.056Z,99273.84
2023-01-13T15:50:27.017Z,99268.28
2023-01-13T15:52:53.618Z,99274.81
2023-01-13T15:55:22.858Z,99278.09
2023-01-13T15:57:50.170Z,99282.75
2023-01-13T16:00:22.995Z,99282.75
2023-01-13T16:02:49.764Z,99295.78
2023-01-13T16:05:16.346Z,99296.53
2023-01-13T16:07:42.879Z,99298.00
2023-01-13T16:10:21.807Z,99300.41
2023-01-13T16:12:48.210Z,99298.28
2023-01-13T16:15:16.625Z,99297.56
2023-01-13T16:17:44.813Z,99314.09
2023-01-13T16:20:16.627Z,99310.00
2023-01-13T16:22:43.120Z,99316.50
2023-01-13T16:25:19.640Z,99323.81
2023-01-13T16:27:46.679Z,99316.75
2023-01-13T16:30:31.912Z,99328.97
2023-01-13T16:32:58.575Z,99335.97
2023-01-13T16:35:25.777Z,99334.56
2023-01-13T16:37:53.856Z,99344.59
2023-01-13T16:40:23.177Z,99347.34
2023-01-13T16:42:49.840Z,99352.72
2023-01-13T16:45:16.667Z,99363.84
2023-01-13T16:47:44.363Z,99370.78
2023-01-13T16:50:30.340Z,99368.25
2023-01-13T16:52:56.742Z,99387.63
2023-01-13T16:55:23.150Z,99398.81
2023-01-13T16:57:49.881Z,99401.75
2023-01-13T17:00:16.971Z,99395.47
2023-01-13T17:02:43.530Z,99406.13
2023-01-13T17:05:13.671Z,99401.59
2023-01-13T17:07:45.105Z,99411.28
2023-01-13T17:10:16.947Z,99413.66
2023-01-13T17:12:43.333Z,99411.69
2023-01-13T17:15:14.806Z,99411.31
2023-01-13T17:17:43.359Z,99415.22
2023-01-13T17:20:14.880Z,99410.50
2023-01-13T17:22:42.456Z,99405.19
2023-01-13T17:25:12.554Z,99410.31
2023-01-13T17:27:38.957Z,99423.88
2023-01-13T17:30:05.981Z,99421.84
2023-01-13T17:32:32.377Z,99423.56
2023-01-13T17:35:01.484Z,99432.91
2023-01-13T17:37:28.578Z,99437.66
2023-01-13T17:39:55.632Z,99432.16
2023-01-13T17:42:23.738Z,99436.56
2023-01-13T17:44:51.095Z,99439.81
2023-01-13T17:47:17.539Z,99442.09
2023-01-13T17:49:43.927Z,99441.00
2023-01-13T17:52:10.499Z,99451.22
2023-01-13T17:54:36.950Z,99454.78
2023-01-13T17:57:03.504Z,99464.59
2023-01-13T17:59:29.943Z,99464.59
2023-01-13T18:01:56.478Z,99466.53
2023-01-13T18:04:26.974Z,99461.25
2023-01-13T18:06:53.552Z,99466.88
2023-01-13T18:09:20.014Z,99472.75
2023-01-13T18:11:47.315Z,99469.00
2023-01-13T18:14:14.071Z,99471.28
2023-01-13T18:16:40.688Z,99480.50
2023-01-13T18:19:27.408Z,99464.81
2023-01-13T18:22:12.436Z,99478.84
2023-01-13T18:24:57.470Z,99475.59
2023-01-13T18:27:29.755Z,99481.69
2023-01-13T18:29:58.499Z,99483.44
2023-01-13T18:32:30.154Z,99492.69
2023-01-13T18:35:05.584Z,99494.84
2023-01-13T18:37:35.777Z,99496.22
2023-01-13T18:40:02.836Z,99492.88
2023-01-13T18:42:47.888Z,99488.66
2023-01-13T18:45:14.327Z,99492.88
2023-01-13T18:47:42.239Z,99490.63
2023-01-13T18:50:12.098Z,99486.81
2023-01-13T18:52:38.479Z,99503.66
2023-01-13T18:55:05.170Z,99494.47
2023-01-13T18:57:31.670Z,99504.19
2023-01-13T18:59:58.033Z,99511.06
2023-01-13T19:02:26.358Z,99518.78
2023-01-13T19:04:53.818Z,99518.78
2023-01-13T19:07:28.883Z,99524.69
2023-01-13T19:09:55.929Z,99520.38
2023-01-13T19:12:31.214Z,99542.34
2023-01-13T19:14:58.359Z,99540.59
2023-01-13T19:17:26.746Z,99541.69
2023-01-13T19:19:55.284Z,99548.84
2023-01-13T19:22:24.008Z,99551.78
2023-01-13T19:24:50.703Z,99557.78
2023-01-13T19:27:18.343Z,99567.22
2023-01-13T19:29:50.737Z,99569.97
2023-01-13T19:32:20.399Z,99566.72
2023-01-13T19:34:49.155Z,99580.47
2023-01-13T19:37:15.829Z,99575.34
2023-01-13T19:39:42.320Z,99584.41
2023-01-13T19:42:29.973Z,99567.50
2023-01-13T19:45:15.019Z,99583.72
2023-01-13T19:47:41.531Z,99574.59
2023-01-13T19:50:08.822Z,99581.84
2023-01-13T19:52:35.240Z,99594.81
2023-01-13T19:55:02.038Z,99599.53
2023-01-13T19:57:28.626Z,99606.50
2023-01-13T19:59:56.226Z,99615.25
2023-01-13T20:02:31.276Z,99606.69
2023-01-13T20:05:01.894Z,99614.34
2023-01-13T20:07:29.791Z,99614.56
2023-01-13T20:09:56.629Z,99614.78
2023-01-13T20:12:24.358Z,99613.91
2023-01-13T20:14:50.810Z,99614.78
2023-01-13T20:17:19.600Z,99615.63
2023-01-13T20:19:46.110Z,99620.16
2023-01-13T20:22:13.483Z,99620.16
2023-01-13T20:24:39.927Z,99624.19
2023-01-13T20:27:06.696Z,99621.19
2023-01-13T20:29:33.423Z,99627.84
2023-01-13T20:32:00.223Z,99633.06
2023-01-13T20:34:26.684Z,99632.94
2023-01-13T20:36:53.326Z,99631.66
2023-01-13T20:39:26.259Z,99635.41
2023-01-13T20:42:11.324Z,99636.31
2023-01-13T20:44:37.873Z,99645.72
2023-01-13T20:47:04.397Z,99648.06
2023-01-13T20:49:31.152Z,99650.63
2023-01-13T20:51:57.650Z,99653.38
2023-01-13T20:54:24.472Z,99645.44
2023-01-13T20:56:50.978Z,99648.56
2023-01-13T20:59:17.531Z,99650.22
2023-01-13T21:01:44.054Z,99649.72
2023-01-13T21:04:10.758Z,99652.06
2023-01-13T21:06:37.225Z,99658.97
2023-01-13T21:09:04.037Z,99652.97
2023-01-13T21:11:49.182Z,99666.69
2023-01-13T21:14:42.541Z,99672.44
2023-01-13T21:17:30.103Z,99671.63
2023-01-13T21:19:56.540Z,99676.66
2023-01-13T21:22:23.087Z,99676.53
2023-01-13T21:24:49.540Z,99676.06
2023-01-13T21:27:15.948Z,99672.06
2023-01-13T21:29:44.419Z,99678.31
2023-01-13T21:32:11.327Z,99673.00
2023-01-13T21:34:37.716Z,99673.41
2023-01-13T21:37:04.134Z,99676.81
2023-01-13T21:39:30.604Z,99676.13
2023-01-13T21:42:15.674Z,99677.78
2023-01-13T21:45:00.448Z,99687.69
2023-01-13T21:47:45.213Z,99693.03
2023-01-13T21:50:13.756Z,99694.75
2023-01-13T21:52:42.787Z,99702.78
2023-01-13T21:55:26.853Z,99701.84
2023-01-13T21:57:54.245Z,99698.78
2023-01-13T22:00:22.311Z,99704.78
2023-01-13T22:02:49.305Z,99706.75
2023-01-13T22:05:20.531Z,99709.00
2023-01-13T22:07:46.990Z,99714.75
2023-01-13T22:10:16.458Z,99710.97
2023-01-13T22:12:43.519Z,99713.31
2023-01-13T22:15:11.570Z,99722.44
2023-01-13T22:17:38.045Z,99713.44
2023-01-13T22:20:04.989Z,99707.53
2023-01-13T22:22:36.569Z,99716.09
2023-01-13T22:25:09.169Z,99709.31
2023-01-13T22:27:40.491Z,99700.56
2023-01-13T22:30:08.945Z,99702.13
2023-01-13T22:32:37.643Z,99705.88
2023-01-13T22:35:06.476Z,99710.56
2023-01-13T22:37:32.956Z,99718.56
2023-01-13T22:39:59.399Z,99716.34
2023-01-13T22:42:25.895Z,99713.69
2023-01-13T22:44:52.310Z,99715.69
2023-01-13T22:47:18.777Z,99720.09
2023-01-13T22:49:47.674Z,99724.78
2023-01-13T22:52:15.435Z,99722.69
2023-01-13T22:54:41.931Z,99723.38
2023-01-13T22:57:08.497Z,99725.72
2023-01-13T22:59:34.990Z,99727.91
2023-01-13T23:02:01.424Z,99720.13
2023-01-13T23:04:27.863Z,99717.69
2023-01-13T23:06:54.304Z,99722.81
2023-01-13T23:09:20.768Z,99723.28
2023-01-13T23:11:47.922Z,99715.91
2023-01-13T23:14:14.475Z,99717.69
2023-01-13T23:16:41.345Z,99727.00
2023-01-13T23:19:08.106Z,99730.56
2023-01-13T23:21:37.040Z,99714.38
2023-01-13T23:24:05.306Z,99712.78
2023-01-13T23:26:32.663Z,99712.38
2023-01-13T23:29:04.616Z,99719.16
2023-01-13T23:31:31.108Z,99724.25
2023-01-13T23:33:57.585Z,99721.72
2023-01-13T23:36:25.756Z,99732.03
2023-01-13T23:38:52.429Z,99739.69
2023-01-13T23:41:24.504Z,99732.81
2023-01-13T23:43:56.301Z,99736.25
2023-01-13T23:46:22.939Z,99725.34
2023-01-13T23:48:50.224Z,99725.22
2023-01-13T23:51:17.206Z,99708.16
2023-01-13T23:53:45.756Z,99712.38
2023-01-13T23:56:14.902Z,99698.84
2023-01-13T23:58:42.104Z,99697.56
